Time;durP1;ratioP1;P1;durP2;ratioP2;P2;SDS_P1;SDS_P2;PMS_P1;PMS_P2;Temp;Humidity;BMP_temperature;BMP_pressure;BME280_temperature;BME280_humidity;BME280_pressure;Samples;Min_cycle;Max_cycle;Signal;HPM_P1;HPM_P2
2024/02/25 00:00:45;;;;;;;5.40;4.90;;;8.80;37.20;;;;;;10449564;28;20229;-75
2024/02/25 00:05:48;;;;;;;7.83;5.87;;;8.90;37.50;;;;;;10450896;28;20773;-75
2024/02/25 00:10:52;;;;;;;6.13;5.53;;;8.90;37.40;;;;;;10451050;28;20240;-76
2024/02/25 00:15:57;;;;;;;5.67;5.17;;;8.90;37.40;;;;;;10449048;28;20225;-76
2024/02/25 00:21:00;;;;;;;5.97;5.30;;;8.90;37.60;;;;;;10450305;28;20237;-75
2024/02/25 00:26:04;;;;;;;4.70;4.30;;;8.90;37.40;;;;;;10446147;28;20308;-76
2024/02/25 00:31:08;;;;;;;6.50;4.70;;;9.00;37.40;;;;;;10448802;28;20240;-75
2024/02/25 00:36:11;;;;;;;4.63;4.13;;;9.00;37.50;;;;;;10450075;28;20242;-75
2024/02/25 00:41:14;;;;;;;4.53;4.13;;;9.00;37.30;;;;;;10450454;28;20286;-76
2024/02/25 00:46:19;;;;;;;5.20;4.80;;;8.90;37.20;;;;;;10450351;28;20267;-75
2024/02/25 00:51:22;;;;;;;6.17;5.57;;;8.90;37.40;;;;;;10449326;28;20838;-76
2024/02/25 00:56:25;;;;;;;5.30;4.80;;;8.90;37.30;;;;;;10448885;28;20295;-75
2024/02/25 01:01:30;;;;;;;6.30;5.10;;;8.90;37.30;;;;;;10441872;28;20233;-76
2024/02/25 01:06:33;;;;;;;6.20;5.00;;;8.90;37.50;;;;;;10444419;28;20225;-76
2024/02/25 01:11:37;;;;;;;4.80;4.40;;;8.90;37.30;;;;;;10448463;28;20237;-75
2024/02/25 01:16:42;;;;;;;5.63;4.80;;;8.80;37.30;;;;;;10448171;28;20229;-75
2024/02/25 01:21:46;;;;;;;9.37;6.17;;;8.80;37.60;;;;;;10452478;28;20719;-76
2024/02/25 01:26:49;;;;;;;6.73;5.57;;;8.80;37.60;;;;;;10436854;28;20259;-75
2024/02/25 01:31:56;;;;;;;5.57;5.07;;;8.70;37.50;;;;;;10445304;28;20225;-75
2024/02/25 01:36:59;;;;;;;5.07;4.67;;;8.70;37.80;;;;;;10447826;28;20279;-76
2024/02/25 01:42:02;;;;;;;7.27;5.27;;;8.60;37.70;;;;;;10447748;28;20231;-75
2024/02/25 01:47:08;;;;;;;6.37;5.77;;;8.50;37.80;;;;;;10439262;28;20233;-76
2024/02/25 01:52:11;;;;;;;5.97;5.37;;;8.50;38.20;;;;;;10445970;28;20300;-76
2024/02/25 01:57:14;;;;;;;5.00;4.60;;;8.40;37.90;;;;;;10447561;28;20698;-75
2024/02/25 02:02:19;;;;;;;5.10;4.60;;;8.40;38.10;;;;;;10440827;28;20264;-75
2024/02/25 02:07:23;;;;;;;5.83;5.23;;;8.40;38.40;;;;;;10446514;28;20256;-75
2024/02/25 02:12:26;;;;;;;7.17;5.20;;;8.50;38.30;;;;;;10442356;28;20235;-75
2024/02/25 02:17:30;;;;;;;5.60;4.97;;;8.50;38.30;;;;;;10446078;28;20252;-75
2024/02/25 02:22:36;;;;;;;5.27;4.77;;;8.60;38.40;;;;;;10444297;28;20225;-75
2024/02/25 02:27:40;;;;;;;6.07;5.47;;;8.60;38.40;;;;;;10446168;28;20235;-75
2024/02/25 02:32:43;;;;;;;7.40;6.07;;;8.60;38.20;;;;;;10445850;28;20229;-75
2024/02/25 02:37:47;;;;;;;6.87;5.50;;;8.60;38.10;;;;;;10445156;28;20658;-75
2024/02/25 02:42:52;;;;;;;5.93;5.43;;;8.50;38.40;;;;;;10445899;28;20254;-75
2024/02/25 02:47:55;;;;;;;6.07;5.43;;;8.30;38.40;;;;;;10443027;28;20229;-75
2024/02/25 02:53:00;;;;;;;5.07;4.67;;;8.20;38.60;;;;;;10443918;28;20221;-75
2024/02/25 02:58:04;;;;;;;5.43;4.87;;;8.10;39.30;;;;;;10445423;28;20221;-75
2024/02/25 03:03:07;;;;;;;5.40;4.90;;;8.20;39.10;;;;;;10445698;28;20228;-75
2024/02/25 03:08:12;;;;;;;5.33;4.80;;;8.20;39.20;;;;;;10445544;28;20228;-75
2024/02/25 03:13:15;;;;;;;5.97;5.37;;;8.30;39.50;;;;;;10438110;28;20274;-74
2024/02/25 03:18:18;;;;;;;5.73;5.23;;;8.30;39.00;;;;;;10444000;28;20580;-75
2024/02/25 03:23:23;;;;;;;6.33;5.53;;;8.30;39.00;;;;;;10453715;28;20235;-75
2024/02/25 03:28:26;;;;;;;5.03;4.53;;;8.40;39.50;;;;;;10447476;28;20924;-75
2024/02/25 03:33:29;;;;;;;5.63;5.03;;;8.40;39.10;;;;;;10464540;28;20248;-75
2024/02/25 03:38:34;;;;;;;5.27;4.53;;;8.50;39.20;;;;;;10453555;28;20243;-75
2024/02/25 03:43:37;;;;;;;6.07;4.83;;;8.50;39.50;;;;;;10453582;28;20935;-75
2024/02/25 03:48:41;;;;;;;5.30;4.80;;;8.60;38.90;;;;;;10453278;28;20232;-75
2024/02/25 03:53:46;;;;;;;5.47;4.90;;;8.40;38.90;;;;;;10453106;28;20293;-75
2024/02/25 03:58:49;;;;;;;4.90;4.40;;;8.20;39.40;;;;;;10461026;28;20570;-75
2024/02/25 04:03:52;;;;;;;5.40;4.27;;;8.10;39.30;;;;;;10452326;28;20735;-75
2024/02/25 04:08:56;;;;;;;5.07;4.33;;;8.00;39.30;;;;;;10452515;28;20278;-75
2024/02/25 04:14:00;;;;;;;4.93;4.47;;;8.00;39.50;;;;;;10452165;28;20225;-75
2024/02/25 04:19:03;;;;;;;5.13;4.63;;;8.00;39.30;;;;;;10452260;28;20752;-75
2024/02/25 04:24:08;;;;;;;4.90;4.37;;;8.00;39.30;;;;;;10451871;28;20224;-75
2024/02/25 04:29:12;;;;;;;5.33;4.83;;;8.00;39.50;;;;;;10451492;28;20283;-75
2024/02/25 04:34:15;;;;;;;6.37;4.30;;;8.00;39.30;;;;;;10451266;28;20682;-75
2024/02/25 04:39:21;;;;;;;4.97;4.40;;;8.00;39.30;;;;;;10458391;28;20230;-75
2024/02/25 04:44:24;;;;;;;4.80;4.40;;;8.00;39.90;;;;;;10449485;28;20225;-75
2024/02/25 04:49:27;;;;;;;5.17;4.77;;;8.00;39.70;;;;;;10446993;28;20235;-75
2024/02/25 04:54:32;;;;;;;4.90;4.40;;;8.10;39.50;;;;;;10450910;28;20225;-75
2024/02/25 04:59:35;;;;;;;4.90;4.47;;;8.10;39.70;;;;;;10450063;28;20235;-75
2024/02/25 05:04:40;;;;;;;4.07;3.77;;;8.20;39.50;;;;;;10450049;28;20633;-75
2024/02/25 05:09:45;;;;;;;5.07;4.00;;;8.20;39.90;;;;;;10449484;28;20233;-75
2024/02/25 05:14:49;;;;;;;4.07;3.73;;;8.30;39.80;;;;;;10449598;28;20231;-75
2024/02/25 05:19:53;;;;;;;4.17;3.77;;;8.30;39.50;;;;;;10449212;28;20224;-75
2024/02/25 05:24:57;;;;;;;3.93;3.63;;;8.40;39.60;;;;;;10449850;28;20224;-75
2024/02/25 05:30:00;;;;;;;3.90;3.57;;;8.40;39.60;;;;;;10448878;28;20728;-75
2024/02/25 05:35:06;;;;;;;3.60;3.30;;;8.40;39.60;;;;;;10444817;28;20221;-75
2024/02/25 05:40:13;;;;;;;4.13;3.80;;;8.30;39.50;;;;;;10439422;28;20224;-75
2024/02/25 05:45:17;;;;;;;3.70;3.40;;;8.20;39.80;;;;;;10446242;28;20308;-75
2024/02/25 05:50:20;;;;;;;3.43;3.13;;;8.20;39.40;;;;;;10448238;28;20255;-75
2024/02/25 05:55:24;;;;;;;4.80;4.40;;;8.20;39.40;;;;;;10447843;28;20482;-75
2024/02/25 06:00:28;;;;;;;4.20;3.80;;;8.20;39.80;;;;;;10447686;28;20807;-75
2024/02/25 06:05:33;;;;;;;4.70;4.10;;;8.20;39.40;;;;;;10446182;28;20255;-75
2024/02/25 06:10:38;;;;;;;6.70;6.10;;;8.20;39.50;;;;;;10439301;28;20240;-75
2024/02/25 06:15:41;;;;;;;4.70;4.30;;;8.20;39.70;;;;;;10447023;28;20308;-75
2024/02/25 06:20:44;;;;;;;5.20;4.70;;;8.30;39.50;;;;;;10438785;28;20233;-75
2024/02/25 06:25:49;;;;;;;5.70;4.90;;;8.20;39.40;;;;;;10447037;28;20232;-75
2024/02/25 06:30:52;;;;;;;5.23;4.23;;;8.10;39.50;;;;;;10446284;28;20239;-75
2024/02/25 06:35:55;;;;;;;6.60;6.00;;;8.10;39.30;;;;;;10445670;28;20221;-76
2024/02/25 06:41:00;;;;;;;4.60;4.20;;;8.00;39.40;;;;;;10445199;28;20236;-76
2024/02/25 06:46:04;;;;;;;6.20;4.47;;;7.90;40.00;;;;;;10444310;28;20300;-75
2024/02/25 06:51:07;;;;;;;4.27;3.93;;;7.80;40.10;;;;;;10445838;28;20245;-75
2024/02/25 06:56:12;;;;;;;4.97;4.47;;;7.80;39.80;;;;;;10440029;28;20727;-76
2024/02/25 07:01:16;;;;;;;9.77;8.10;;;7.80;40.20;;;;;;10440743;28;20235;-76
2024/02/25 07:06:20;;;;;;;10.40;8.57;;;7.70;40.10;;;;;;10442115;28;20255;-76
2024/02/25 07:11:28;;;;;;;5.87;5.27;;;7.70;40.10;;;;;;10439939;28;20230;-76
2024/02/25 07:16:31;;;;;;;4.90;4.50;;;7.70;40.30;;;;;;10441458;28;20220;-76
2024/02/25 07:21:35;;;;;;;8.37;7.53;;;7.80;40.10;;;;;;10440957;28;20231;-76
2024/02/25 07:26:39;;;;;;;8.23;7.43;;;7.90;40.10;;;;;;10440029;28;20239;-75
2024/02/25 07:31:43;;;;;;;7.13;6.07;;;8.00;40.30;;;;;;10442383;28;20297;-76
2024/02/25 07:36:46;;;;;;;14.03;12.73;;;8.10;40.10;;;;;;10435115;28;20221;-76
2024/02/25 07:41:50;;;;;;;3.97;3.67;;;8.20;40.00;;;;;;10437036;28;20597;-76
2024/02/25 07:46:54;;;;;;;5.37;4.63;;;8.20;39.70;;;;;;10442157;28;20225;-76
2024/02/25 07:51:57;;;;;;;3.40;3.13;;;8.20;39.40;;;;;;10439311;28;20263;-76
2024/02/25 07:57:02;;;;;;;3.50;3.10;;;8.30;39.60;;;;;;10433456;28;20233;-76
2024/02/25 08:02:05;;;;;;;4.43;4.03;;;8.40;40.20;;;;;;10438074;28;20232;-76
2024/02/25 08:07:08;;;;;;;3.67;3.37;;;8.40;40.80;;;;;;10438473;28;20312;-76
2024/02/25 08:12:13;;;;;;;2.90;2.70;;;8.50;40.20;;;;;;10429305;28;20260;-77
2024/02/25 08:17:16;;;;;;;2.47;2.27;;;8.60;40.30;;;;;;10441731;28;20232;-77
2024/02/25 08:22:20;;;;;;;2.70;2.47;;;8.70;39.90;;;;;;10448152;28;20225;-76
2024/02/25 08:27:28;;;;;;;2.60;2.40;;;8.90;40.00;;;;;;10440845;28;20248;-76
2024/02/25 08:32:31;;;;;;;2.53;2.33;;;9.00;40.20;;;;;;10446011;28;20247;-77
2024/02/25 08:37:35;;;;;;;2.43;2.23;;;9.10;40.10;;;;;;10443256;28;20225;-76
2024/02/25 08:42:39;;;;;;;2.40;2.20;;;9.30;40.30;;;;;;10440262;28;20232;-76
2024/02/25 08:47:43;;;;;;;2.17;2.07;;;9.40;40.40;;;;;;10440970;28;20243;-76
2024/02/25 08:52:46;;;;;;;2.70;2.50;;;9.50;40.50;;;;;;10445949;28;20233;-75
2024/02/25 08:57:50;;;;;;;2.40;2.20;;;9.70;40.40;;;;;;10423673;28;20233;-74
2024/02/25 09:02:54;;;;;;;2.43;2.23;;;9.70;40.30;;;;;;10431037;28;20266;-74
2024/02/25 09:07:59;;;;;;;2.40;2.20;;;9.90;40.10;;;;;;10429486;28;20237;-73
2024/02/25 09:13:04;;;;;;;3.00;2.20;;;10.00;39.20;;;;;;10428435;28;20237;-75
2024/02/25 09:18:07;;;;;;;2.00;1.90;;;10.10;39.80;;;;;;10422941;28;20237;-74
2024/02/25 09:23:11;;;;;;;2.50;2.30;;;10.30;39.50;;;;;;10424538;28;20253;-74
2024/02/25 09:28:18;;;;;;;3.70;2.33;;;10.50;39.60;;;;;;10435802;28;20243;-75
2024/02/25 09:33:23;;;;;;;2.33;2.13;;;10.80;39.30;;;;;;10437092;28;22253;-74
2024/02/25 09:38:27;;;;;;;2.60;2.40;;;11.00;39.10;;;;;;10438443;28;20869;-73
2024/02/25 09:43:33;;;;;;;2.60;2.40;;;11.30;39.60;;;;;;10440746;28;20279;-73
2024/02/25 09:48:37;;;;;;;2.50;2.30;;;11.60;40.60;;;;;;10439348;28;20235;-74
2024/02/25 09:53:41;;;;;;;2.37;2.17;;;11.90;39.90;;;;;;10437107;28;20236;-76
2024/02/25 09:58:47;;;;;;;2.13;2.03;;;12.20;39.40;;;;;;10432916;28;20703;-74
2024/02/25 10:03:50;;;;;;;2.83;2.30;;;12.50;38.60;;;;;;10430994;28;20497;-74
2024/02/25 10:08:53;;;;;;;2.57;2.10;;;12.70;38.40;;;;;;10442548;28;20320;-74
2024/02/25 10:13:58;;;;;;;2.20;2.10;;;12.90;38.00;;;;;;10444348;28;20228;-76
2024/02/25 10:19:01;;;;;;;2.40;2.20;;;13.10;37.90;;;;;;10442079;28;20327;-76
2024/02/25 10:24:05;;;;;;;2.23;2.13;;;13.20;37.70;;;;;;10444988;28;20223;-76
2024/02/25 10:29:10;;;;;;;2.53;2.33;;;13.40;38.00;;;;;;10443224;28;20240;-76
2024/02/25 10:34:13;;;;;;;2.17;1.97;;;13.60;37.40;;;;;;10440954;28;20312;-76
2024/02/25 10:39:16;;;;;;;2.17;1.90;;;13.70;37.20;;;;;;10440289;28;20240;-76
2024/02/25 10:44:21;;;;;;;2.10;1.90;;;13.80;37.20;;;;;;10432380;28;20303;-76
2024/02/25 10:49:27;;;;;;;2.40;2.20;;;13.90;36.10;;;;;;10436825;28;20666;-76
2024/02/25 10:54:30;;;;;;;2.20;2.10;;;14.00;36.20;;;;;;10437654;28;20224;-76
2024/02/25 10:59:35;;;;;;;1.87;1.77;;;14.10;36.50;;;;;;10437119;28;20249;-75
2024/02/25 11:04:39;;;;;;;1.90;1.80;;;14.20;36.10;;;;;;10437804;28;20276;-76
2024/02/25 11:09:43;;;;;;;1.90;1.80;;;14.30;36.40;;;;;;10434983;28;20787;-76
2024/02/25 11:14:53;;;;;;;1.87;1.70;;;14.40;36.10;;;;;;10440911;28;20223;-75
2024/02/25 11:20:03;;;;;;;1.80;1.70;;;14.50;35.30;;;;;;10429832;28;20241;-76
2024/02/25 11:25:07;;;;;;;1.90;1.80;;;14.60;34.70;;;;;;10439209;28;20883;-76
2024/02/25 11:30:18;;;;;;;1.50;1.40;;;14.80;35.50;;;;;;10434656;28;20232;-76
2024/02/25 11:35:25;;;;;;;2.37;1.60;;;14.90;33.60;;;;;;10439095;28;20252;-76
2024/02/25 11:40:28;;;;;;;1.70;1.60;;;15.00;34.10;;;;;;10433343;28;20233;-76
2024/02/25 11:45:35;;;;;;;1.20;1.10;;;15.10;35.20;;;;;;10439635;28;20300;-76
2024/02/25 11:50:38;;;;;;;0.73;0.73;;;15.20;33.20;;;;;;10440412;28;20238;-76
2024/02/25 11:55:42;;;;;;;1.90;0.60;;;15.20;32.30;;;;;;10442338;28;20229;-76
2024/02/25 12:00:46;;;;;;;0.60;0.60;;;15.10;31.70;;;;;;10440488;28;20707;-76
2024/02/25 12:05:50;;;;;;;0.87;0.87;;;15.00;32.00;;;;;;10448637;28;20239;-76
2024/02/25 12:10:54;;;;;;;0.60;0.60;;;15.00;32.10;;;;;;10447044;28;20229;-76
2024/02/25 12:15:58;;;;;;;0.70;0.70;;;15.00;31.00;;;;;;10446734;28;20305;-76
2024/02/25 12:21:02;;;;;;;0.73;0.73;;;15.00;30.20;;;;;;10445643;28;20225;-76
2024/02/25 12:26:08;;;;;;;0.87;0.87;;;15.10;31.50;;;;;;10443533;28;20797;-76
2024/02/25 12:31:12;;;;;;;0.90;0.90;;;15.10;31.90;;;;;;10440114;28;20696;-76
2024/02/25 12:36:16;;;;;;;0.77;0.70;;;15.20;30.60;;;;;;10443783;28;20324;-76
2024/02/25 12:41:23;;;;;;;1.43;0.90;;;15.20;30.00;;;;;;10448137;28;20240;-76
2024/02/25 12:46:29;;;;;;;1.80;0.80;;;15.00;29.70;;;;;;10444284;28;20270;-74
2024/02/25 12:51:32;;;;;;;1.20;1.10;;;14.90;29.10;;;;;;10441042;28;20243;-74
2024/02/25 12:56:37;;;;;;;0.77;0.77;;;14.70;29.50;;;;;;10436991;28;20324;-74
2024/02/25 13:01:43;;;;;;;1.20;0.87;;;14.60;29.30;;;;;;10442128;28;20244;-75
2024/02/25 13:06:46;;;;;;;1.83;0.90;;;14.40;29.30;;;;;;10450020;28;20634;-76
2024/02/25 13:11:53;;;;;;;1.10;1.00;;;14.30;31.50;;;;;;10449266;28;20319;-74
2024/02/25 13:16:58;;;;;;;0.83;0.80;;;14.40;31.60;;;;;;10445033;28;20263;-76
2024/02/25 13:22:01;;;;;;;1.40;0.90;;;14.40;29.50;;;;;;10448741;28;20225;-76
2024/02/25 13:27:05;;;;;;;0.70;0.70;;;14.30;31.20;;;;;;10450039;28;20323;-75
2024/02/25 13:32:10;;;;;;;0.90;0.90;;;14.30;30.00;;;;;;10449038;28;20237;-76
2024/02/25 13:37:14;;;;;;;0.70;0.70;;;14.30;29.70;;;;;;10448474;28;20239;-76
2024/02/25 13:42:17;;;;;;;0.70;0.70;;;14.30;29.60;;;;;;10449509;28;20237;-76
2024/02/25 13:47:21;;;;;;;0.80;0.80;;;14.30;29.40;;;;;;10449424;28;20221;-76
2024/02/25 13:52:25;;;;;;;0.63;0.63;;;14.30;29.60;;;;;;10448565;28;20804;-76
2024/02/25 13:57:28;;;;;;;0.83;0.70;;;14.40;30.00;;;;;;10448510;28;20282;-76
2024/02/25 14:02:32;;;;;;;0.93;0.90;;;14.40;29.80;;;;;;10441187;28;20271;-75
2024/02/25 14:07:36;;;;;;;0.83;0.83;;;14.50;29.10;;;;;;10443561;28;20233;-75
2024/02/25 14:12:39;;;;;;;0.93;0.93;;;14.60;29.50;;;;;;10443161;28;20249;-76
2024/02/25 14:17:44;;;;;;;0.87;0.80;;;14.60;29.50;;;;;;10448061;28;20228;-76
2024/02/25 14:22:48;;;;;;;0.80;0.80;;;14.60;29.10;;;;;;10447756;28;20233;-75
2024/02/25 14:27:51;;;;;;;0.80;0.80;;;14.60;29.80;;;;;;10447222;28;20331;-76
2024/02/25 14:32:55;;;;;;;0.83;0.80;;;14.50;29.40;;;;;;10447037;28;20237;-75
2024/02/25 14:37:59;;;;;;;1.00;0.83;;;14.50;29.20;;;;;;10446988;28;20243;-75
2024/02/25 14:43:03;;;;;;;1.53;0.80;;;14.50;29.00;;;;;;10446918;28;20777;-76
2024/02/25 14:48:09;;;;;;;4.47;3.20;;;14.50;29.70;;;;;;10446284;28;20243;-76
2024/02/25 14:53:13;;;;;;;1.57;1.47;;;14.50;28.60;;;;;;10438860;28;20612;-75
2024/02/25 14:58:16;;;;;;;2.07;1.30;;;14.50;29.50;;;;;;10442094;28;20318;-75
2024/02/25 15:03:20;;;;;;;1.40;1.30;;;14.50;29.10;;;;;;10442165;28;20217;-75
2024/02/25 15:08:24;;;;;;;0.80;0.80;;;14.50;28.90;;;;;;10437221;28;20283;-76
2024/02/25 15:13:27;;;;;;;1.07;1.00;;;14.40;29.10;;;;;;10431370;28;20264;-76
2024/02/25 15:18:32;;;;;;;1.03;1.03;;;14.40;28.90;;;;;;10437868;28;21346;-76
2024/02/25 15:23:35;;;;;;;1.33;1.23;;;14.40;28.80;;;;;;10434192;28;20218;-76
2024/02/25 15:28:39;;;;;;;1.53;1.13;;;14.40;29.20;;;;;;10447772;28;20241;-76
2024/02/25 15:33:47;;;;;;;1.00;1.00;;;14.30;28.90;;;;;;10444944;28;20711;-76
2024/02/25 15:38:55;;;;;;;1.90;1.30;;;14.30;28.50;;;;;;10448112;28;20315;-75
2024/02/25 15:43:58;;;;;;;0.80;0.80;;;14.20;29.10;;;;;;10440780;28;20238;-75
2024/02/25 15:49:03;;;;;;;1.03;1.03;;;14.20;29.00;;;;;;10449798;28;20876;-75
2024/02/25 15:54:07;;;;;;;2.07;1.20;;;14.00;28.90;;;;;;10441028;28;20237;-76
2024/02/25 15:59:10;;;;;;;1.40;1.30;;;14.00;29.30;;;;;;10444286;28;20236;-76
2024/02/25 16:04:15;;;;;;;1.83;1.70;;;13.90;29.50;;;;;;10442204;28;20231;-76
2024/02/25 16:09:20;;;;;;;1.40;1.30;;;13.90;29.00;;;;;;10446801;28;20262;-75
2024/02/25 16:14:24;;;;;;;1.30;1.07;;;13.80;29.40;;;;;;10452144;28;20235;-75
2024/02/25 16:19:28;;;;;;;1.20;1.10;;;13.80;29.70;;;;;;10444407;28;20605;-76
2024/02/25 16:24:31;;;;;;;0.90;0.87;;;13.80;29.40;;;;;;10442215;28;20225;-75
2024/02/25 16:29:38;;;;;;;0.80;0.80;;;13.70;29.40;;;;;;10444479;28;20257;-75
2024/02/25 16:34:43;;;;;;;1.00;0.90;;;13.70;29.70;;;;;;10435918;28;20308;-75
2024/02/25 16:39:46;;;;;;;0.70;0.70;;;13.60;29.30;;;;;;10440933;28;20264;-76
2024/02/25 16:44:49;;;;;;;0.80;0.80;;;13.60;30.00;;;;;;10440728;28;20245;-74
2024/02/25 16:49:54;;;;;;;0.60;0.60;;;13.60;29.50;;;;;;10440555;28;20236;-74
2024/02/25 16:54:58;;;;;;;0.80;0.70;;;13.60;29.60;;;;;;10424934;28;20753;-75
2024/02/25 17:00:03;;;;;;;0.80;0.80;;;13.60;29.80;;;;;;10428344;28;20232;-75
2024/02/25 17:05:08;;;;;;;2.07;1.40;;;13.50;29.60;;;;;;10433334;28;20278;-75
2024/02/25 17:10:12;;;;;;;1.50;1.40;;;13.50;29.40;;;;;;10424517;28;20283;-75
2024/02/25 17:15:16;;;;;;;1.53;1.40;;;13.50;29.60;;;;;;10434242;28;20283;-75
2024/02/25 17:20:20;;;;;;;5.23;4.23;;;13.40;29.80;;;;;;10438780;28;20240;-75
2024/02/25 17:25:24;;;;;;;7.00;5.43;;;13.40;29.70;;;;;;10440109;28;20739;-75
2024/02/25 17:30:29;;;;;;;11.23;6.33;;;13.40;29.70;;;;;;10445240;28;20243;-75
2024/02/25 17:35:33;;;;;;;5.60;4.20;;;13.40;29.80;;;;;;10443427;28;20249;-75
2024/02/25 17:40:37;;;;;;;6.10;4.30;;;13.40;29.70;;;;;;10437267;28;20233;-75
2024/02/25 17:45:42;;;;;;;5.73;4.10;;;13.30;29.80;;;;;;10446700;28;20297;-76
2024/02/25 17:50:46;;;;;;;4.80;3.80;;;13.30;29.80;;;;;;10447139;28;20233;-75
2024/02/25 17:55:52;;;;;;;3.97;3.37;;;13.30;29.70;;;;;;10447189;28;20228;-75
2024/02/25 18:00:56;;;;;;;6.97;5.20;;;13.20;29.70;;;;;;10446692;28;20232;-75
2024/02/25 18:06:01;;;;;;;5.13;4.37;;;13.10;29.60;;;;;;10439641;28;20225;-75
2024/02/25 18:11:05;;;;;;;8.27;6.90;;;13.00;29.60;;;;;;10444161;28;20225;-75
2024/02/25 18:16:11;;;;;;;8.43;7.53;;;12.90;29.60;;;;;;10442373;28;20233;-75
2024/02/25 18:21:16;;;;;;;9.13;7.83;;;12.80;29.70;;;;;;10438531;28;20229;-75
2024/02/25 18:26:19;;;;;;;7.60;6.70;;;12.70;29.80;;;;;;10446856;28;20658;-75
2024/02/25 18:31:27;;;;;;;7.17;5.93;;;12.60;30.00;;;;;;10447021;28;20243;-75
2024/02/25 18:36:32;;;;;;;6.77;5.57;;;12.50;30.00;;;;;;10441442;28;20250;-75
2024/02/25 18:41:36;;;;;;;7.43;6.50;;;12.40;30.00;;;;;;10447067;28;20312;-75
2024/02/25 18:46:39;;;;;;;6.67;5.97;;;12.30;29.90;;;;;;10441242;28;20281;-75
2024/02/25 18:51:45;;;;;;;6.57;5.97;;;12.20;29.80;;;;;;10437942;28;20236;-75
2024/02/25 18:56:48;;;;;;;5.37;4.87;;;12.10;29.90;;;;;;10437782;28;20240;-76
2024/02/25 19:01:52;;;;;;;4.90;3.90;;;12.00;29.70;;;;;;10433527;28;20243;-75
2024/02/25 19:06:58;;;;;;;4.40;4.00;;;12.00;29.70;;;;;;10426615;28;20231;-75
2024/02/25 19:12:01;;;;;;;4.53;4.13;;;11.90;30.00;;;;;;10432649;28;20431;-75
2024/02/25 19:17:06;;;;;;;4.80;4.40;;;11.80;29.90;;;;;;10435554;28;20337;-75
2024/02/25 19:22:12;;;;;;;4.60;4.20;;;11.70;29.90;;;;;;10427619;28;20332;-75
2024/02/25 19:27:16;;;;;;;4.60;4.20;;;11.70;30.00;;;;;;10427216;28;20286;-75
2024/02/25 19:32:20;;;;;;;4.50;4.10;;;11.60;30.00;;;;;;10441479;28;20315;-75
2024/02/25 19:37:26;;;;;;;4.97;4.47;;;11.50;30.00;;;;;;10443876;28;20281;-75
2024/02/25 19:42:29;;;;;;;4.43;3.70;;;11.40;30.00;;;;;;10445371;28;20225;-76
2024/02/25 19:47:33;;;;;;;5.33;4.93;;;11.30;30.10;;;;;;10445047;28;20235;-75
2024/02/25 19:52:38;;;;;;;5.50;5.10;;;11.20;30.20;;;;;;10440625;28;20655;-75
2024/02/25 19:57:41;;;;;;;8.10;7.13;;;11.10;30.50;;;;;;10439749;28;20228;-75
2024/02/25 20:02:45;;;;;;;7.80;7.00;;;11.10;30.40;;;;;;10439911;28;20216;-75
2024/02/25 20:07:50;;;;;;;8.43;7.63;;;11.00;30.40;;;;;;10432276;28;20698;-75
2024/02/25 20:12:54;;;;;;;8.37;7.53;;;10.90;30.40;;;;;;10444677;28;20759;-75
2024/02/25 20:17:57;;;;;;;7.23;6.43;;;10.90;30.40;;;;;;10448975;28;20312;-75
2024/02/25 20:23:02;;;;;;;6.93;6.23;;;10.80;30.30;;;;;;10439996;28;20565;-75
2024/02/25 20:28:05;;;;;;;7.77;6.97;;;10.70;30.40;;;;;;10446908;28;20593;-75
2024/02/25 20:33:10;;;;;;;6.90;6.20;;;10.50;30.50;;;;;;10449237;28;20233;-75
2024/02/25 20:38:16;;;;;;;6.57;5.97;;;10.40;30.70;;;;;;10442233;28;20286;-73
2024/02/25 20:43:19;;;;;;;7.83;6.23;;;10.30;30.90;;;;;;10432134;28;20227;-76
2024/02/25 20:48:23;;;;;;;5.67;5.07;;;10.30;30.80;;;;;;10434252;28;20651;-75
2024/02/25 20:53:27;;;;;;;7.00;5.87;;;10.20;30.80;;;;;;10427074;28;20669;-73
2024/02/25 20:58:31;;;;;;;6.50;5.90;;;10.10;31.10;;;;;;10425215;28;20248;-74
2024/02/25 21:03:34;;;;;;;6.23;5.63;;;10.00;31.00;;;;;;10425976;28;20251;-76
2024/02/25 21:08:39;;;;;;;7.20;6.10;;;10.00;31.00;;;;;;10426763;28;20236;-75
2024/02/25 21:13:42;;;;;;;6.20;5.60;;;10.00;31.30;;;;;;10425790;28;20279;-75
2024/02/25 21:18:45;;;;;;;6.37;5.77;;;9.90;32.20;;;;;;10422932;28;20236;-73
2024/02/25 21:23:50;;;;;;;6.43;5.83;;;9.80;32.40;;;;;;10417580;28;20811;-73
2024/02/25 21:28:53;;;;;;;7.20;6.50;;;9.70;32.50;;;;;;10421795;28;20228;-74
2024/02/25 21:33:57;;;;;;;8.37;7.53;;;9.70;32.70;;;;;;10417428;28;20236;-74
2024/02/25 21:39:02;;;;;;;9.23;8.33;;;9.70;32.70;;;;;;10427814;28;20774;-75
2024/02/25 21:44:05;;;;;;;10.00;8.07;;;9.70;33.10;;;;;;10427385;28;20351;-75
2024/02/25 21:49:09;;;;;;;9.13;8.23;;;9.60;32.90;;;;;;10426564;28;20229;-75
2024/02/25 21:54:13;;;;;;;10.37;8.97;;;9.50;33.10;;;;;;10435461;28;20228;-75
2024/02/25 21:59:17;;;;;;;8.43;7.60;;;9.50;33.30;;;;;;10438372;28;20256;-75
2024/02/25 22:04:20;;;;;;;7.27;6.57;;;9.50;33.20;;;;;;10438972;28;20594;-76
2024/02/25 22:09:25;;;;;;;7.87;7.17;;;9.50;33.30;;;;;;10436119;28;20245;-75
2024/02/25 22:14:28;;;;;;;9.00;7.90;;;9.50;33.60;;;;;;10437362;28;20245;-75
2024/02/25 22:19:32;;;;;;;7.33;6.63;;;9.50;33.40;;;;;;10436359;28;20686;-75
2024/02/25 22:24:37;;;;;;;8.47;7.67;;;9.50;33.80;;;;;;10433897;28;20974;-75
2024/02/25 22:29:40;;;;;;;8.50;7.70;;;9.40;34.00;;;;;;10431292;28;20244;-75
2024/02/25 22:34:43;;;;;;;8.07;7.30;;;9.30;33.90;;;;;;10434837;28;20248;-75
2024/02/25 22:39:48;;;;;;;8.87;7.97;;;9.30;34.00;;;;;;10433254;28;20237;-75
2024/02/25 22:44:52;;;;;;;8.30;7.23;;;9.30;34.10;;;;;;10435993;28;20233;-75
2024/02/25 22:49:55;;;;;;;8.07;7.27;;;9.40;33.80;;;;;;10434365;28;20224;-75
2024/02/25 22:55:00;;;;;;;8.40;7.50;;;9.40;33.80;;;;;;10435236;28;20580;-75
2024/02/25 23:00:16;;;;;;;8.63;7.80;;;9.30;33.80;;;;;;10436431;28;20231;-75
2024/02/25 23:05:20;;;;;;;7.40;6.80;;;9.30;33.70;;;;;;10434743;28;20853;-75
2024/02/25 23:10:26;;;;;;;7.40;6.70;;;9.30;33.60;;;;;;10432882;28;20234;-75
2024/02/25 23:15:30;;;;;;;8.10;7.30;;;9.30;33.70;;;;;;10438227;28;20250;-75
2024/02/25 23:20:33;;;;;;;8.63;7.87;;;9.20;33.60;;;;;;10435093;28;20248;-75
2024/02/25 23:25:39;;;;;;;7.60;6.87;;;9.20;33.50;;;;;;10440239;28;20312;-75
2024/02/25 23:30:42;;;;;;;6.97;6.27;;;9.20;33.40;;;;;;10436975;28;20239;-75
2024/02/25 23:35:46;;;;;;;9.03;7.23;;;9.20;33.30;;;;;;10435842;28;20229;-75
2024/02/25 23:40:50;;;;;;;8.80;7.90;;;9.10;33.30;;;;;;10438009;28;20248;-73
2024/02/25 23:45:53;;;;;;;8.47;6.83;;;8.90;33.40;;;;;;10443675;28;20316;-73
2024/02/25 23:50:56;;;;;;;8.20;7.40;;;8.80;33.50;;;;;;10452314;28;20885;-73
2024/02/25 23:56:01;;;;;;;7.50;6.80;;;8.70;33.70;;;;;;10452019;28;20240;-74
